sensor_id;sensor_type;location;lat;lon;timestamp;pressure;altitude;pressure_sealevel;temperature;humidity
16016;BME280;8112;53.592;10.184;2022-11-18T00:02:37;99945.78;;;2.13;100.00
16016;BME280;8112;53.592;10.184;2022-11-18T00:07:40;99937.53;;;2.02;100.00
16016;BME280;8112;53.592;10.184;2022-11-18T00:12:42;99941.25;;;1.95;100.00
16016;BME280;8112;53.592;10.184;2022-11-18T00:18:01;99939.78;;;2.11;100.00
16016;BME280;8112;53.592;10.184;2022-11-18T00:23:06;99947.19;;;1.98;100.00
16016;BME280;8112;53.592;10.184;2022-11-18T00:28:08;99943.84;;;1.95;100.00
16016;BME280;8112;53.592;10.184;2022-11-18T00:33:10;99941.59;;;1.85;100.00
16016;BME280;8112;53.592;10.184;2022-11-18T00:38:13;99953.69;;;1.87;100.00
16016;BME280;8112;53.592;10.184;2022-11-18T00:43:15;99947.88;;;1.78;100.00
16016;BME280;8112;53.592;10.184;2022-11-18T00:48:17;99959.78;;;1.85;100.00
16016;BME280;8112;53.592;10.184;2022-11-18T00:53:24;99967.66;;;1.82;100.00
16016;BME280;8112;53.592;10.184;2022-11-18T00:58:26;99970.09;;;1.87;100.00
16016;BME280;8112;53.592;10.184;2022-11-18T01:03:29;99974.13;;;1.70;100.00
16016;BME280;8112;53.592;10.184;2022-11-18T01:08:33;99977.72;;;1.66;100.00
16016;BME280;8112;53.592;10.184;2022-11-18T01:13:34;99983.78;;;1.67;100.00
16016;BME280;8112;53.592;10.184;2022-11-18T01:18:36;99980.41;;;1.65;100.00
16016;BME280;8112;53.592;10.184;2022-11-18T01:23:40;99992.50;;;1.66;100.00
16016;BME280;8112;53.592;10.184;2022-11-18T01:28:42;99989.97;;;1.63;100.00
16016;BME280;8112;53.592;10.184;2022-11-18T01:33:45;99989.00;;;1.67;100.00
16016;BME280;8112;53.592;10.184;2022-11-18T01:38:49;99993.38;;;1.65;100.00
16016;BME280;8112;53.592;10.184;2022-11-18T01:43:53;99998.47;;;1.68;100.00
16016;BME280;8112;53.592;10.184;2022-11-18T01:48:59;100003.59;;;1.69;100.00
16016;BME280;8112;53.592;10.184;2022-11-18T01:54:08;100000.09;;;1.70;100.00
16016;BME280;8112;53.592;10.184;2022-11-18T01:59:16;100011.25;;;1.74;100.00
16016;BME280;8112;53.592;10.184;2022-11-18T02:04:20;100014.75;;;1.73;100.00
16016;BME280;8112;53.592;10.184;2022-11-18T02:09:23;100017.59;;;1.65;100.00
16016;BME280;8112;53.592;10.184;2022-11-18T02:14:28;100019.06;;;1.73;100.00
16016;BME280;8112;53.592;10.184;2022-11-18T02:19:46;100014.78;;;1.71;100.00
16016;BME280;8112;53.592;10.184;2022-11-18T02:24:58;100021.69;;;1.73;100.00
16016;BME280;8112;53.592;10.184;2022-11-18T02:30:08;100021.97;;;1.65;100.00
16016;BME280;8112;53.592;10.184;2022-11-18T02:35:15;100018.47;;;1.66;100.00
16016;BME280;8112;53.592;10.184;2022-11-18T02:40:22;100022.00;;;1.63;100.00
16016;BME280;8112;53.592;10.184;2022-11-18T02:45:28;100015.03;;;1.64;100.00
16016;BME280;8112;53.592;10.184;2022-11-18T02:50:31;100032.59;;;1.57;100.00
16016;BME280;8112;53.592;10.184;2022-11-18T02:55:36;100039.13;;;1.69;100.00
16016;BME280;8112;53.592;10.184;2022-11-18T03:00:41;100045.34;;;1.65;100.00
16016;BME280;8112;53.592;10.184;2022-11-18T03:05:49;100045.63;;;1.55;100.00
16016;BME280;8112;53.592;10.184;2022-11-18T03:10:57;100047.41;;;1.53;100.00
16016;BME280;8112;53.592;10.184;2022-11-18T03:16:09;100049.03;;;1.31;100.00
16016;BME280;8112;53.592;10.184;2022-11-18T03:21:17;100054.91;;;1.36;100.00
16016;BME280;8112;53.592;10.184;2022-11-18T03:26:24;100051.16;;;1.45;100.00
16016;BME280;8112;53.592;10.184;2022-11-18T03:31:35;100060.31;;;1.56;100.00
16016;BME280;8112;53.592;10.184;2022-11-18T03:36:41;100066.59;;;1.49;100.00
16016;BME280;8112;53.592;10.184;2022-11-18T03:41:49;100083.16;;;1.45;100.00
16016;BME280;8112;53.592;10.184;2022-11-18T03:46:56;100068.41;;;1.47;100.00
16016;BME280;8112;53.592;10.184;2022-11-18T03:52:04;100070.91;;;1.50;100.00
16016;BME280;8112;53.592;10.184;2022-11-18T03:57:12;100081.09;;;1.56;100.00
16016;BME280;8112;53.592;10.184;2022-11-18T04:02:19;100077.06;;;1.46;100.00
16016;BME280;8112;53.592;10.184;2022-11-18T04:07:25;100088.91;;;1.55;100.00
16016;BME280;8112;53.592;10.184;2022-11-18T04:12:32;100091.03;;;1.42;100.00
16016;BME280;8112;53.592;10.184;2022-11-18T04:17:41;100109.06;;;1.48;100.00
16016;BME280;8112;53.592;10.184;2022-11-18T04:22:43;100104.19;;;1.37;100.00
16016;BME280;8112;53.592;10.184;2022-11-18T04:27:45;100111.78;;;1.44;100.00
16016;BME280;8112;53.592;10.184;2022-11-18T04:32:49;100112.53;;;1.47;100.00
16016;BME280;8112;53.592;10.184;2022-11-18T04:37:50;100107.34;;;1.47;100.00
16016;BME280;8112;53.592;10.184;2022-11-18T04:42:52;100114.97;;;1.52;100.00
16016;BME280;8112;53.592;10.184;2022-11-18T04:47:55;100117.44;;;1.56;100.00
16016;BME280;8112;53.592;10.184;2022-11-18T04:52:57;100134.13;;;1.49;100.00
16016;BME280;8112;53.592;10.184;2022-11-18T04:57:59;100139.00;;;1.59;100.00
16016;BME280;8112;53.592;10.184;2022-11-18T05:03:02;100138.00;;;1.63;100.00
16016;BME280;8112;53.592;10.184;2022-11-18T05:08:04;100141.69;;;1.57;100.00
16016;BME280;8112;53.592;10.184;2022-11-18T05:13:06;100144.72;;;1.70;100.00
16016;BME280;8112;53.592;10.184;2022-11-18T05:18:10;100155.06;;;1.71;100.00
16016;BME280;8112;53.592;10.184;2022-11-18T05:23:12;100159.34;;;1.73;100.00
16016;BME280;8112;53.592;10.184;2022-11-18T05:28:14;100170.81;;;1.67;100.00
16016;BME280;8112;53.592;10.184;2022-11-18T05:33:17;100169.00;;;1.69;100.00
16016;BME280;8112;53.592;10.184;2022-11-18T05:38:19;100175.69;;;1.76;100.00
16016;BME280;8112;53.592;10.184;2022-11-18T05:43:20;100182.34;;;1.58;100.00
16016;BME280;8112;53.592;10.184;2022-11-18T05:48:24;100186.38;;;1.67;100.00
16016;BME280;8112;53.592;10.184;2022-11-18T05:53:26;100203.69;;;1.68;100.00
16016;BME280;8112;53.592;10.184;2022-11-18T05:58:28;100208.81;;;1.69;100.00
16016;BME280;8112;53.592;10.184;2022-11-18T06:03:35;100210.28;;;1.78;100.00
16016;BME280;8112;53.592;10.184;2022-11-18T06:08:41;100216.50;;;1.73;100.00
16016;BME280;8112;53.592;10.184;2022-11-18T06:13:49;100217.38;;;1.73;100.00
16016;BME280;8112;53.592;10.184;2022-11-18T06:18:54;100230.59;;;1.65;100.00
16016;BME280;8112;53.592;10.184;2022-11-18T06:23:56;100230.78;;;1.59;100.00
16016;BME280;8112;53.592;10.184;2022-11-18T06:28:58;100246.94;;;1.69;100.00
16016;BME280;8112;53.592;10.184;2022-11-18T06:34:01;100247.78;;;1.69;100.00
16016;BME280;8112;53.592;10.184;2022-11-18T06:39:03;100257.00;;;1.50;100.00
16016;BME280;8112;53.592;10.184;2022-11-18T06:44:06;100268.25;;;1.50;100.00
16016;BME280;8112;53.592;10.184;2022-11-18T06:49:09;100275.31;;;1.45;100.00
16016;BME280;8112;53.592;10.184;2022-11-18T06:54:11;100267.09;;;1.31;100.00
16016;BME280;8112;53.592;10.184;2022-11-18T06:59:13;100271.19;;;1.38;100.00
16016;BME280;8112;53.592;10.184;2022-11-18T07:04:16;100273.59;;;1.44;100.00
16016;BME280;8112;53.592;10.184;2022-11-18T07:09:18;100285.53;;;1.51;100.00
16016;BME280;8112;53.592;10.184;2022-11-18T07:14:20;100291.34;;;1.30;100.00
16016;BME280;8112;53.592;10.184;2022-11-18T07:19:23;100303.25;;;1.37;100.00
16016;BME280;8112;53.592;10.184;2022-11-18T07:24:25;100300.94;;;1.26;100.00
16016;BME280;8112;53.592;10.184;2022-11-18T07:29:27;100312.56;;;1.44;100.00
16016;BME280;8112;53.592;10.184;2022-11-18T07:34:30;100313.53;;;1.40;100.00
16016;BME280;8112;53.592;10.184;2022-11-18T07:39:31;100323.94;;;1.40;100.00
16016;BME280;8112;53.592;10.184;2022-11-18T07:44:33;100335.88;;;1.47;100.00
16016;BME280;8112;53.592;10.184;2022-11-18T07:49:36;100335.88;;;1.47;100.00
16016;BME280;8112;53.592;10.184;2022-11-18T07:54:38;100340.56;;;1.64;100.00
16016;BME280;8112;53.592;10.184;2022-11-18T07:59:40;100348.00;;;1.45;100.00
16016;BME280;8112;53.592;10.184;2022-11-18T08:04:43;100349.03;;;1.71;100.00
16016;BME280;8112;53.592;10.184;2022-11-18T08:09:45;100355.84;;;1.75;100.00
16016;BME280;8112;53.592;10.184;2022-11-18T08:14:47;100360.44;;;1.67;100.00
16016;BME280;8112;53.592;10.184;2022-11-18T08:19:50;100371.94;;;1.58;100.00
16016;BME280;8112;53.592;10.184;2022-11-18T08:24:52;100378.13;;;1.52;100.00
16016;BME280;8112;53.592;10.184;2022-11-18T08:29:53;100380.31;;;1.68;100.00
16016;BME280;8112;53.592;10.184;2022-11-18T08:34:57;100378.44;;;1.73;100.00
16016;BME280;8112;53.592;10.184;2022-11-18T08:39:59;100377.75;;;1.66;100.00
16016;BME280;8112;53.592;10.184;2022-11-18T08:45:01;100382.09;;;1.66;100.00
16016;BME280;8112;53.592;10.184;2022-11-18T08:50:07;100385.81;;;1.57;100.00
16016;BME280;8112;53.592;10.184;2022-11-18T08:55:09;100385.91;;;1.84;100.00
16016;BME280;8112;53.592;10.184;2022-11-18T09:00:12;100391.63;;;1.97;100.00
16016;BME280;8112;53.592;10.184;2022-11-18T09:05:16;100397.97;;;1.87;100.00
16016;BME280;8112;53.592;10.184;2022-11-18T09:10:18;100407.63;;;1.81;100.00
16016;BME280;8112;53.592;10.184;2022-11-18T09:15:19;100410.38;;;2.08;100.00
16016;BME280;8112;53.592;10.184;2022-11-18T09:20:24;100423.81;;;2.23;100.00
16016;BME280;8112;53.592;10.184;2022-11-18T09:25:26;100433.13;;;2.30;100.00
16016;BME280;8112;53.592;10.184;2022-11-18T09:30:28;100435.81;;;2.27;100.00
16016;BME280;8112;53.592;10.184;2022-11-18T09:35:31;100445.69;;;2.46;100.00
16016;BME280;8112;53.592;10.184;2022-11-18T09:40:41;100445.59;;;2.49;100.00
16016;BME280;8112;53.592;10.184;2022-11-18T09:45:50;100457.06;;;2.41;100.00
16016;BME280;8112;53.592;10.184;2022-11-18T09:50:55;100460.41;;;2.45;100.00
16016;BME280;8112;53.592;10.184;2022-11-18T09:55:57;100467.63;;;2.65;100.00
16016;BME280;8112;53.592;10.184;2022-11-18T10:00:59;100466.69;;;2.39;100.00
16016;BME280;8112;53.592;10.184;2022-11-18T10:06:12;100467.84;;;2.59;100.00
16016;BME280;8112;53.592;10.184;2022-11-18T10:11:18;100478.81;;;2.69;100.00
16016;BME280;8112;53.592;10.184;2022-11-18T10:16:31;100481.19;;;2.77;100.00
16016;BME280;8112;53.592;10.184;2022-11-18T10:21:45;100485.09;;;2.62;100.00
16016;BME280;8112;53.592;10.184;2022-11-18T10:26:54;100497.69;;;2.46;100.00
16016;BME280;8112;53.592;10.184;2022-11-18T10:32:00;100506.44;;;2.73;100.00
16016;BME280;8112;53.592;10.184;2022-11-18T10:37:06;100507.56;;;2.64;100.00
16016;BME280;8112;53.592;10.184;2022-11-18T10:42:25;100497.06;;;2.67;100.00
16016;BME280;8112;53.592;10.184;2022-11-18T10:47:29;100505.13;;;2.28;100.00
16016;BME280;8112;53.592;10.184;2022-11-18T10:52:50;100512.59;;;2.40;100.00
16016;BME280;8112;53.592;10.184;2022-11-18T10:57:56;100520.56;;;2.34;100.00
16016;BME280;8112;53.592;10.184;2022-11-18T11:02:59;100517.47;;;2.51;100.00
16016;BME280;8112;53.592;10.184;2022-11-18T11:08:03;100515.88;;;2.47;100.00
16016;BME280;8112;53.592;10.184;2022-11-18T11:13:11;100521.47;;;2.63;100.00
16016;BME280;8112;53.592;10.184;2022-11-18T11:18:18;100524.31;;;2.54;100.00
16016;BME280;8112;53.592;10.184;2022-11-18T11:23:41;100524.41;;;2.51;100.00
16016;BME280;8112;53.592;10.184;2022-11-18T11:28:49;100527.22;;;2.45;100.00
16016;BME280;8112;53.592;10.184;2022-11-18T11:33:56;100533.78;;;2.58;100.00
16016;BME280;8112;53.592;10.184;2022-11-18T11:39:09;100540.63;;;2.91;100.00
16016;BME280;8112;53.592;10.184;2022-11-18T11:44:26;100547.22;;;2.73;100.00
16016;BME280;8112;53.592;10.184;2022-11-18T11:49:41;100552.81;;;2.89;100.00
16016;BME280;8112;53.592;10.184;2022-11-18T11:54:56;100556.00;;;2.68;100.00
16016;BME280;8112;53.592;10.184;2022-11-18T12:00:04;100557.47;;;2.79;100.00
16016;BME280;8112;53.592;10.184;2022-11-18T12:05:21;100572.66;;;2.93;100.00
16016;BME280;8112;53.592;10.184;2022-11-18T12:10:29;100563.41;;;2.82;100.00
16016;BME280;8112;53.592;10.184;2022-11-18T12:15:43;100557.34;;;2.82;100.00
16016;BME280;8112;53.592;10.184;2022-11-18T12:20:48;100567.69;;;2.85;100.00
16016;BME280;8112;53.592;10.184;2022-11-18T12:25:58;100567.53;;;2.60;100.00
16016;BME280;8112;53.592;10.184;2022-11-18T12:31:32;100580.38;;;2.66;100.00
16016;BME280;8112;53.592;10.184;2022-11-18T12:36:36;100570.00;;;2.64;100.00
16016;BME280;8112;53.592;10.184;2022-11-18T12:41:53;100576.28;;;2.87;100.00
16016;BME280;8112;53.592;10.184;2022-11-18T12:47:13;100584.47;;;2.75;100.00
16016;BME280;8112;53.592;10.184;2022-11-18T12:52:44;100581.34;;;2.62;100.00
16016;BME280;8112;53.592;10.184;2022-11-18T12:57:48;100579.72;;;2.58;100.00
16016;BME280;8112;53.592;10.184;2022-11-18T13:02:50;100580.06;;;2.45;100.00
16016;BME280;8112;53.592;10.184;2022-11-18T13:07:55;100585.03;;;2.23;100.00
16016;BME280;8112;53.592;10.184;2022-11-18T13:13:24;100588.56;;;2.19;100.00
16016;BME280;8112;53.592;10.184;2022-11-18T13:18:26;100601.41;;;1.92;100.00
16016;BME280;8112;53.592;10.184;2022-11-18T13:23:30;100599.84;;;1.84;100.00
16016;BME280;8112;53.592;10.184;2022-11-18T13:29:18;100610.25;;;1.84;100.00
16016;BME280;8112;53.592;10.184;2022-11-18T13:34:24;100611.09;;;1.85;100.00
16016;BME280;8112;53.592;10.184;2022-11-18T13:39:28;100623.19;;;1.86;100.00
16016;BME280;8112;53.592;10.184;2022-11-18T13:44:33;100620.66;;;1.84;100.00
16016;BME280;8112;53.592;10.184;2022-11-18T13:49:49;100623.44;;;1.77;100.00
16016;BME280;8112;53.592;10.184;2022-11-18T13:54:56;100637.94;;;1.85;100.00
16016;BME280;8112;53.592;10.184;2022-11-18T14:00:03;100634.75;;;1.74;100.00
16016;BME280;8112;53.592;10.184;2022-11-18T14:05:16;100635.59;;;1.75;100.00
16016;BME280;8112;53.592;10.184;2022-11-18T14:10:28;100639.94;;;1.74;100.00
16016;BME280;8112;53.592;10.184;2022-11-18T14:15:36;100641.09;;;1.61;100.00
16016;BME280;8112;53.592;10.184;2022-11-18T14:20:38;100647.19;;;1.60;100.00
16016;BME280;8112;53.592;10.184;2022-11-18T14:25:42;100657.72;;;1.53;100.00
16016;BME280;8112;53.592;10.184;2022-11-18T14:31:00;100664.63;;;1.54;100.00
16016;BME280;8112;53.592;10.184;2022-11-18T14:36:09;100682.09;;;1.48;100.00
16016;BME280;8112;53.592;10.184;2022-11-18T14:41:13;100682.00;;;1.52;100.00
16016;BME280;8112;53.592;10.184;2022-11-18T14:46:18;100682.16;;;1.45;100.00
16016;BME280;8112;53.592;10.184;2022-11-18T14:51:21;100693.28;;;1.51;100.00
16016;BME280;8112;53.592;10.184;2022-11-18T14:56:28;100684.44;;;1.59;100.00
16016;BME280;8112;53.592;10.184;2022-11-18T15:01:32;100692.94;;;1.67;100.00
16016;BME280;8112;53.592;10.184;2022-11-18T15:06:34;100700.03;;;1.59;100.00
16016;BME280;8112;53.592;10.184;2022-11-18T15:11:36;100707.25;;;1.44;100.00
16016;BME280;8112;53.592;10.184;2022-11-18T15:16:39;100714.22;;;1.42;100.00
16016;BME280;8112;53.592;10.184;2022-11-18T15:21:41;100719.63;;;1.33;100.00
16016;BME280;8112;53.592;10.184;2022-11-18T15:26:44;100728.50;;;1.22;100.00
16016;BME280;8112;53.592;10.184;2022-11-18T15:31:48;100734.78;;;1.12;100.00
16016;BME280;8112;53.592;10.184;2022-11-18T15:36:50;100735.00;;;0.98;100.00
16016;BME280;8112;53.592;10.184;2022-11-18T15:41:52;100750.84;;;0.85;100.00
16016;BME280;8112;53.592;10.184;2022-11-18T15:46:55;100752.56;;;0.85;100.00
16016;BME280;8112;53.592;10.184;2022-11-18T15:51:59;100756.94;;;0.81;100.00
16016;BME280;8112;53.592;10.184;2022-11-18T15:57:01;100766.53;;;0.78;100.00
16016;BME280;8112;53.592;10.184;2022-11-18T16:02:04;100778.63;;;0.79;100.00
16016;BME280;8112;53.592;10.184;2022-11-18T16:07:07;100777.94;;;0.69;100.00
16016;BME280;8112;53.592;10.184;2022-11-18T16:12:09;100780.72;;;0.58;100.00
16016;BME280;8112;53.592;10.184;2022-11-18T16:17:41;100784.25;;;0.51;100.00
16016;BME280;8112;53.592;10.184;2022-11-18T16:22:43;100792.25;;;0.38;100.00
16016;BME280;8112;53.592;10.184;2022-11-18T16:27:45;100794.97;;;0.29;100.00
16016;BME280;8112;53.592;10.184;2022-11-18T16:32:50;100808.66;;;0.39;100.00
16016;BME280;8112;53.592;10.184;2022-11-18T16:37:52;100811.97;;;0.49;100.00
16016;BME280;8112;53.592;10.184;2022-11-18T16:42:54;100807.69;;;0.46;100.00
16016;BME280;8112;53.592;10.184;2022-11-18T16:47:57;100811.22;;;0.40;100.00
16016;BME280;8112;53.592;10.184;2022-11-18T16:52:59;100824.16;;;0.42;100.00
16016;BME280;8112;53.592;10.184;2022-11-18T16:58:00;100834.56;;;0.40;100.00
16016;BME280;8112;53.592;10.184;2022-11-18T17:03:04;100835.47;;;0.38;100.00
16016;BME280;8112;53.592;10.184;2022-11-18T17:08:06;100835.50;;;0.35;100.00
16016;BME280;8112;53.592;10.184;2022-11-18T17:13:08;100828.56;;;0.37;100.00
16016;BME280;8112;53.592;10.184;2022-11-18T17:18:11;100824.97;;;0.47;100.00
16016;BME280;8112;53.592;10.184;2022-11-18T17:23:13;100829.34;;;0.44;100.00
16016;BME280;8112;53.592;10.184;2022-11-18T17:28:15;100847.66;;;0.31;100.00
16016;BME280;8112;53.592;10.184;2022-11-18T17:33:18;100847.69;;;0.30;100.00
16016;BME280;8112;53.592;10.184;2022-11-18T17:38:20;100853.88;;;0.18;100.00
16016;BME280;8112;53.592;10.184;2022-11-18T17:43:22;100860.91;;;0.09;100.00
16016;BME280;8112;53.592;10.184;2022-11-18T17:48:26;100868.75;;;0.06;100.00
16016;BME280;8112;53.592;10.184;2022-11-18T17:53:29;100878.47;;;-0.11;100.00
16016;BME280;8112;53.592;10.184;2022-11-18T17:58:30;100891.44;;;-0.15;100.00
16016;BME280;8112;53.592;10.184;2022-11-18T18:03:34;100892.25;;;-0.09;100.00
16016;BME280;8112;53.592;10.184;2022-11-18T18:08:36;100885.41;;;-0.13;100.00
16016;BME280;8112;53.592;10.184;2022-11-18T18:13:39;100890.53;;;-0.10;100.00
16016;BME280;8112;53.592;10.184;2022-11-18T18:19:01;100900.81;;;-0.04;100.00
16016;BME280;8112;53.592;10.184;2022-11-18T18:24:04;100905.16;;;-0.06;100.00
16016;BME280;8112;53.592;10.184;2022-11-18T18:29:06;100918.13;;;-0.06;100.00
16016;BME280;8112;53.592;10.184;2022-11-18T18:34:09;100917.38;;;-0.16;100.00
16016;BME280;8112;53.592;10.184;2022-11-18T18:39:11;100937.22;;;-0.13;100.00
16016;BME280;8112;53.592;10.184;2022-11-18T18:44:13;100935.44;;;-0.11;100.00
16016;BME280;8112;53.592;10.184;2022-11-18T18:49:16;100929.47;;;-0.20;100.00
16016;BME280;8112;53.592;10.184;2022-11-18T18:54:22;100929.53;;;-0.23;100.00
16016;BME280;8112;53.592;10.184;2022-11-18T18:59:24;100924.28;;;-0.18;100.00
16016;BME280;8112;53.592;10.184;2022-11-18T19:04:27;100926.97;;;-0.26;100.00
16016;BME280;8112;53.592;10.184;2022-11-18T19:09:28;100925.25;;;-0.27;100.00
16016;BME280;8112;53.592;10.184;2022-11-18T19:14:31;100934.81;;;-0.32;100.00
16016;BME280;8112;53.592;10.184;2022-11-18T19:19:35;100934.81;;;-0.34;100.00
16016;BME280;8112;53.592;10.184;2022-11-18T19:24:54;100935.78;;;-0.43;100.00
16016;BME280;8112;53.592;10.184;2022-11-18T19:29:56;100949.66;;;-0.50;100.00
16016;BME280;8112;53.592;10.184;2022-11-18T19:35:01;100955.78;;;-0.59;100.00
16016;BME280;8112;53.592;10.184;2022-11-18T19:40:04;100961.81;;;-0.58;100.00
16016;BME280;8112;53.592;10.184;2022-11-18T19:45:07;100967.03;;;-0.64;100.00
16016;BME280;8112;53.592;10.184;2022-11-18T19:50:10;100967.09;;;-0.70;100.00
16016;BME280;8112;53.592;10.184;2022-11-18T19:55:12;100978.41;;;-0.84;100.00
16016;BME280;8112;53.592;10.184;2022-11-18T20:00:16;100977.31;;;-0.52;100.00
16016;BME280;8112;53.592;10.184;2022-11-18T20:05:19;100984.38;;;-0.76;100.00
16016;BME280;8112;53.592;10.184;2022-11-18T20:10:38;100987.97;;;-0.89;100.00
16016;BME280;8112;53.592;10.184;2022-11-18T20:15:40;100986.28;;;-0.95;100.00
16016;BME280;8112;53.592;10.184;2022-11-18T20:20:43;100997.47;;;-0.91;100.00
16016;BME280;8112;53.592;10.184;2022-11-18T20:25:45;101000.88;;;-0.92;100.00
16016;BME280;8112;53.592;10.184;2022-11-18T20:30:52;101013.00;;;-0.97;100.00
16016;BME280;8112;53.592;10.184;2022-11-18T20:35:56;101026.88;;;-1.09;100.00
16016;BME280;8112;53.592;10.184;2022-11-18T20:40:59;101030.34;;;-1.10;100.00
16016;BME280;8112;53.592;10.184;2022-11-18T20:46:02;101026.00;;;-1.04;100.00
16016;BME280;8112;53.592;10.184;2022-11-18T20:51:10;101027.69;;;-0.99;100.00
16016;BME280;8112;53.592;10.184;2022-11-18T20:56:14;101036.28;;;-0.97;100.00
16016;BME280;8112;53.592;10.184;2022-11-18T21:01:18;101043.25;;;-1.07;100.00
16016;BME280;8112;53.592;10.184;2022-11-18T21:06:23;101054.47;;;-1.08;100.00
16016;BME280;8112;53.592;10.184;2022-11-18T21:11:26;101058.88;;;-1.24;100.00
16016;BME280;8112;53.592;10.184;2022-11-18T21:16:28;101070.94;;;-1.26;100.00
16016;BME280;8112;53.592;10.184;2022-11-18T21:21:31;101077.84;;;-1.30;100.00
16016;BME280;8112;53.592;10.184;2022-11-18T21:26:49;101078.72;;;-1.36;100.00
16016;BME280;8112;53.592;10.184;2022-11-18T21:31:51;101072.75;;;-1.50;100.00
16016;BME280;8112;53.592;10.184;2022-11-18T21:36:55;101084.75;;;-1.37;100.00
16016;BME280;8112;53.592;10.184;2022-11-18T21:41:57;101082.19;;;-1.37;100.00
16016;BME280;8112;53.592;10.184;2022-11-18T21:46:59;101080.47;;;-1.41;100.00
16016;BME280;8112;53.592;10.184;2022-11-18T21:52:02;101083.91;;;-1.39;100.00
16016;BME280;8112;53.592;10.184;2022-11-18T21:57:04;101087.34;;;-1.37;100.00
16016;BME280;8112;53.592;10.184;2022-11-18T22:02:07;101094.25;;;-1.36;100.00
16016;BME280;8112;53.592;10.184;2022-11-18T22:07:41;101099.41;;;-1.31;100.00
16016;BME280;8112;53.592;10.184;2022-11-18T22:12:53;101096.84;;;-1.39;100.00
16016;BME280;8112;53.592;10.184;2022-11-18T22:17:55;101099.53;;;-1.73;100.00
16016;BME280;8112;53.592;10.184;2022-11-18T22:22:58;101114.09;;;-1.50;100.00
16016;BME280;8112;53.592;10.184;2022-11-18T22:27:59;101117.56;;;-1.53;100.00
16016;BME280;8112;53.592;10.184;2022-11-18T22:33:01;101113.28;;;-1.62;100.00
16016;BME280;8112;53.592;10.184;2022-11-18T22:38:04;101105.53;;;-1.62;100.00
16016;BME280;8112;53.592;10.184;2022-11-18T22:43:14;101100.34;;;-1.55;100.00
16016;BME280;8112;53.592;10.184;2022-11-18T22:48:15;101116.72;;;-1.56;100.00
16016;BME280;8112;53.592;10.184;2022-11-18T22:53:18;101128.81;;;-1.69;100.00
16016;BME280;8112;53.592;10.184;2022-11-18T22:58:20;101131.41;;;-1.85;100.00
16016;BME280;8112;53.592;10.184;2022-11-18T23:03:22;101131.44;;;-2.15;100.00
16016;BME280;8112;53.592;10.184;2022-11-18T23:08:27;101133.16;;;-2.06;100.00
16016;BME280;8112;53.592;10.184;2022-11-18T23:13:29;101140.00;;;-2.11;100.00
16016;BME280;8112;53.592;10.184;2022-11-18T23:18:49;101144.34;;;-2.10;100.00
16016;BME280;8112;53.592;10.184;2022-11-18T23:23:52;101150.38;;;-2.12;100.00
16016;BME280;8112;53.592;10.184;2022-11-18T23:28:54;101154.66;;;-2.19;100.00
16016;BME280;8112;53.592;10.184;2022-11-18T23:33:57;101165.81;;;-2.40;100.00
16016;BME280;8112;53.592;10.184;2022-11-18T23:39:00;101170.13;;;-2.44;100.00
16016;BME280;8112;53.592;10.184;2022-11-18T23:44:03;101164.13;;;-2.35;100.00
16016;BME280;8112;53.592;10.184;2022-11-18T23:49:07;101158.09;;;-2.37;100.00
16016;BME280;8112;53.592;10.184;2022-11-18T23:54:10;101159.81;;;-2.27;100.00
16016;BME280;8112;53.592;10.184;2022-11-18T23:59:12;101162.41;;;-2.15;100.00
